createdAt,value
2018-12-17T00:00:15.802Z,97611.53
2018-12-17T00:00:47.397Z,97617.94
2018-12-17T00:01:18.991Z,97616.73
2018-12-17T00:01:50.586Z,97618.11
2018-12-17T00:02:22.189Z,97622.78
2018-12-17T00:02:53.824Z,97621.52
2018-12-17T00:03:25.427Z,97626.23
2018-12-17T00:03:57.021Z,97625.39
2018-12-17T00:04:28.613Z,97625.89
2018-12-17T00:05:00.206Z,97632.72
2018-12-17T00:05:31.802Z,97631.88
2018-12-17T00:06:03.402Z,97633.14
2018-12-17T00:06:34.995Z,97636.56
2018-12-17T00:07:06.617Z,97636.14
2018-12-17T00:07:38.232Z,97628.46
2018-12-17T00:08:09.859Z,97633.16
2018-12-17T00:08:41.467Z,97636.63
2018-12-17T00:09:13.076Z,97634.50
2018-12-17T00:09:44.677Z,97629.38
2018-12-17T00:10:16.277Z,97631.10
2018-12-17T00:10:47.870Z,97628.17
2018-12-17T00:11:19.470Z,97631.54
2018-12-17T00:11:51.085Z,97635.80
2018-12-17T00:12:22.687Z,97638.83
2018-12-17T00:12:54.308Z,97636.27
2018-12-17T00:13:25.906Z,97635.80
2018-12-17T00:13:57.483Z,97631.52
2018-12-17T00:14:29.096Z,97637.90
2018-12-17T00:15:00.710Z,97644.72
2018-12-17T00:15:32.326Z,97633.16
2018-12-17T00:16:03.927Z,97632.77
2018-12-17T00:16:35.521Z,97631.88
2018-12-17T00:17:07.119Z,97630.16
2018-12-17T00:17:38.728Z,97628.03
2018-12-17T00:18:10.349Z,97637.38
2018-12-17T00:18:41.929Z,97634.81
2018-12-17T00:19:13.540Z,97635.25
2018-12-17T00:19:45.138Z,97636.90
2018-12-17T00:20:16.739Z,97637.32
2018-12-17T00:20:48.341Z,97640.30
2018-12-17T00:21:19.924Z,97635.25
2018-12-17T00:21:51.531Z,97633.83
2018-12-17T00:22:23.129Z,97635.07
2018-12-17T00:22:54.728Z,97637.14
2018-12-17T00:23:26.337Z,97640.53
2018-12-17T00:23:57.920Z,97646.91
2018-12-17T00:24:29.522Z,97643.42
2018-12-17T00:25:01.130Z,97648.53
2018-12-17T00:25:32.729Z,97645.03
2018-12-17T00:26:04.329Z,97649.23
2018-12-17T00:26:35.932Z,97649.16
2018-12-17T00:27:07.547Z,97646.97
2018-12-17T00:27:39.148Z,97650.27
2018-12-17T00:28:10.781Z,97656.14
2018-12-17T00:28:42.387Z,97653.48
2018-12-17T00:29:13.994Z,97652.11
2018-12-17T00:29:45.577Z,97644.34
2018-12-17T00:30:17.170Z,97645.51
2018-12-17T00:30:48.766Z,97651.81
2018-12-17T00:31:20.359Z,97644.45
2018-12-17T00:31:51.969Z,97647.30
2018-12-17T00:32:23.570Z,97648.10
2018-12-17T00:32:55.173Z,97646.72
2018-12-17T00:33:26.820Z,97644.20
2018-12-17T00:33:58.429Z,97647.87
2018-12-17T00:34:30.040Z,97648.63
2018-12-17T00:35:01.657Z,97648.94
2018-12-17T00:35:33.249Z,97652.78
2018-12-17T00:36:04.841Z,97648.44
2018-12-17T00:36:36.429Z,97651.33
2018-12-17T00:37:08.023Z,97654.65
2018-12-17T00:37:39.624Z,97651.66
2018-12-17T00:38:11.291Z,97646.42
2018-12-17T00:38:42.886Z,97650.98
2018-12-17T00:39:14.479Z,97650.95
2018-12-17T00:39:46.078Z,97659.39
2018-12-17T00:40:17.704Z,97653.34
2018-12-17T00:40:49.298Z,97651.20
2018-12-17T00:41:20.894Z,97650.77
2018-12-17T00:41:52.485Z,97658.87
2018-12-17T00:42:24.095Z,97655.45
2018-12-17T00:42:55.685Z,97659.22
2018-12-17T00:43:27.301Z,97652.81
2018-12-17T00:43:58.911Z,97654.94
2018-12-17T00:44:30.501Z,97655.76
2018-12-17T00:45:02.108Z,97656.13
2018-12-17T00:45:33.722Z,97650.06
2018-12-17T00:46:05.318Z,97654.73
2018-12-17T00:46:36.914Z,97650.92
2018-12-17T00:47:08.506Z,97653.81
2018-12-17T00:47:40.101Z,97655.09
2018-12-17T00:48:11.698Z,97651.25
2018-12-17T00:48:43.336Z,97655.08
2018-12-17T00:49:14.929Z,97655.94
2018-12-17T00:49:46.521Z,97657.20
2018-12-17T00:50:18.123Z,97658.48
2018-12-17T00:50:49.732Z,97654.20
2018-12-17T00:51:21.339Z,97659.27
2018-12-17T00:51:52.922Z,97655.43
2018-12-17T00:52:24.513Z,97661.36
2018-12-17T00:52:56.111Z,97654.97
2018-12-17T00:53:27.767Z,97656.67
2018-12-17T00:53:59.376Z,97657.12
2018-12-17T00:54:30.970Z,97656.71
2018-12-17T00:55:02.562Z,97655.05
2018-12-17T00:55:34.157Z,97654.29
2018-12-17T00:56:05.759Z,97658.15
2018-12-17T00:56:37.349Z,97659.08
2018-12-17T00:57:08.973Z,97662.08
2018-12-17T00:57:40.566Z,97660.04
2018-12-17T00:58:15.139Z,97656.73
2018-12-17T00:58:43.834Z,97662.75
2018-12-17T00:59:15.415Z,97665.39
2018-12-17T00:59:47.020Z,97664.11
2018-12-17T01:00:18.615Z,97664.55
2018-12-17T01:00:50.201Z,97665.44
2018-12-17T01:01:21.809Z,97668.37
2018-12-17T01:01:53.402Z,97669.22
2018-12-17T01:02:24.980Z,97661.28
2018-12-17T01:02:56.574Z,97664.41
2018-12-17T01:03:28.208Z,97667.44
2018-12-17T01:03:59.831Z,97669.59
2018-12-17T01:04:31.436Z,97665.40
2018-12-17T01:05:03.050Z,97668.02
2018-12-17T01:05:34.663Z,97671.52
2018-12-17T01:06:06.257Z,97671.59
2018-12-17T01:06:37.847Z,97676.02
2018-12-17T01:07:09.453Z,97678.17
2018-12-17T01:07:41.045Z,97678.22
2018-12-17T01:08:12.688Z,97677.48
2018-12-17T01:08:44.311Z,97675.92
2018-12-17T01:09:15.901Z,97685.83
2018-12-17T01:09:47.506Z,97678.67
2018-12-17T01:10:19.113Z,97681.70
2018-12-17T01:10:50.706Z,97681.78
2018-12-17T01:11:22.311Z,97678.00
2018-12-17T01:11:53.924Z,97682.30
2018-12-17T01:12:25.514Z,97686.16
2018-12-17T01:12:57.105Z,97679.80
2018-12-17T01:13:28.692Z,97684.08
2018-12-17T01:14:00.314Z,97687.95
2018-12-17T01:14:31.906Z,97683.67
2018-12-17T01:15:03.501Z,97688.44
2018-12-17T01:15:35.115Z,97687.23
2018-12-17T01:16:06.728Z,97689.81
2018-12-17T01:16:38.312Z,97684.71
2018-12-17T01:17:09.920Z,97688.64
2018-12-17T01:17:41.513Z,97694.67
2018-12-17T01:18:13.113Z,97687.51
2018-12-17T01:18:44.907Z,97698.62
2018-12-17T01:19:16.488Z,97694.44
2018-12-17T01:19:48.100Z,97691.97
2018-12-17T01:20:19.707Z,97695.03
2018-12-17T01:20:51.320Z,97687.86
2018-12-17T01:21:22.917Z,97694.67
2018-12-17T01:21:54.513Z,97693.91
2018-12-17T01:22:26.124Z,97693.06
2018-12-17T01:22:57.735Z,97691.45
2018-12-17T01:23:29.334Z,97695.80
2018-12-17T01:24:00.968Z,97697.99
2018-12-17T01:24:32.566Z,97693.33
2018-12-17T01:25:04.173Z,97665.33
2018-12-17T01:25:35.769Z,97694.59
2018-12-17T01:26:07.371Z,97697.17
2018-12-17T01:26:38.980Z,97699.29
2018-12-17T01:27:10.634Z,97697.16
2018-12-17T01:27:42.247Z,97699.73
2018-12-17T01:28:13.851Z,97691.26
2018-12-17T01:28:45.451Z,97698.95
2018-12-17T01:29:17.055Z,97698.96
2018-12-17T01:29:48.645Z,97693.50
2018-12-17T01:30:20.248Z,97693.05
2018-12-17T01:30:51.851Z,97700.72
2018-12-17T01:31:23.432Z,97698.16
2018-12-17T01:31:55.043Z,97696.91
2018-12-17T01:32:26.656Z,97696.89
2018-12-17T01:32:58.262Z,97695.11
2018-12-17T01:33:29.873Z,97700.21
2018-12-17T01:34:01.494Z,97705.28
2018-12-17T01:34:33.104Z,97703.12
2018-12-17T01:35:04.699Z,97705.63
2018-12-17T01:35:36.367Z,97706.05
2018-12-17T01:36:07.954Z,97703.97
2018-12-17T01:36:39.554Z,97709.94
2018-12-17T01:37:11.145Z,97705.70
2018-12-17T01:37:42.752Z,97704.44
2018-12-17T01:38:14.345Z,97708.31
2018-12-17T01:38:45.955Z,97704.94
2018-12-17T01:39:17.552Z,97713.46
2018-12-17T01:39:49.149Z,97702.02
2018-12-17T01:40:20.746Z,97705.85
2018-12-17T01:40:52.342Z,97703.30
2018-12-17T01:41:23.938Z,97703.30
2018-12-17T01:41:55.534Z,97708.78
2018-12-17T01:42:27.136Z,97701.92
2018-12-17T01:42:58.730Z,97701.88
2018-12-17T01:43:30.322Z,97703.14
2018-12-17T01:44:01.951Z,97703.97
2018-12-17T01:44:33.588Z,97705.20
2018-12-17T01:45:05.177Z,97699.57
2018-12-17T01:45:36.767Z,97708.86
2018-12-17T01:46:08.352Z,97698.53
2018-12-17T01:46:39.940Z,97708.66
2018-12-17T01:47:11.535Z,97702.25
2018-12-17T01:47:43.117Z,97707.23
2018-12-17T01:48:14.732Z,97704.17
2018-12-17T01:48:46.325Z,97702.02
2018-12-17T01:49:17.946Z,97705.33
2018-12-17T01:49:49.560Z,97706.11
2018-12-17T01:50:21.170Z,97703.91
2018-12-17T01:50:52.765Z,97706.41
2018-12-17T01:51:24.372Z,97698.23
2018-12-17T01:51:55.987Z,97697.81
2018-12-17T01:52:27.586Z,97707.45
2018-12-17T01:52:59.197Z,97705.25
2018-12-17T01:53:30.788Z,97705.16
2018-12-17T01:54:02.385Z,97703.80
2018-12-17T01:54:33.996Z,97700.34
2018-12-17T01:55:36.892Z,97707.00
2018-12-17T01:56:08.490Z,97709.91
2018-12-17T01:56:40.090Z,97706.38
2018-12-17T01:57:11.681Z,97708.02
2018-12-17T01:57:43.278Z,97700.20
2018-12-17T01:58:14.878Z,97709.55
2018-12-17T01:58:46.483Z,97703.91
2018-12-17T01:59:18.077Z,97699.58
2018-12-17T01:59:49.702Z,97699.98
2018-12-17T02:00:21.284Z,97700.33
2018-12-17T02:00:52.868Z,97699.84
2018-12-17T02:01:24.465Z,97696.36
2018-12-17T02:01:56.053Z,97698.84
2018-12-17T02:02:27.660Z,97697.07
2018-12-17T02:02:59.271Z,97694.52
2018-12-17T02:03:30.855Z,97693.56
2018-12-17T02:04:02.459Z,97655.01
2018-12-17T02:04:34.081Z,97681.95
2018-12-17T02:05:05.687Z,97686.22
2018-12-17T02:05:37.286Z,97689.16
2018-12-17T02:06:08.878Z,97681.06
2018-12-17T02:06:40.475Z,97681.85
2018-12-17T02:07:12.079Z,97683.13
2018-12-17T02:07:43.688Z,97681.48
2018-12-17T02:08:15.300Z,97677.22
2018-12-17T02:08:46.907Z,97672.47
2018-12-17T02:09:18.503Z,97679.80
2018-12-17T02:09:50.122Z,97678.08
2018-12-17T02:10:21.724Z,97677.23
2018-12-17T02:10:53.307Z,97674.34
2018-12-17T02:11:24.901Z,97676.46
2018-12-17T02:11:56.559Z,97679.05
2018-12-17T02:12:28.153Z,97676.98
2018-12-17T02:12:59.749Z,97678.72
2018-12-17T02:13:31.323Z,97680.93
2018-12-17T02:14:02.932Z,97676.23
2018-12-17T02:14:34.559Z,97681.81
2018-12-17T02:15:06.153Z,97683.16
2018-12-17T02:15:37.763Z,97689.59
2018-12-17T02:16:09.370Z,97680.29
2018-12-17T02:16:40.984Z,97685.50
2018-12-17T02:17:12.572Z,97683.00
2018-12-17T02:17:44.166Z,97686.93
2018-12-17T02:18:15.770Z,97687.41
2018-12-17T02:18:47.360Z,97691.77
2018-12-17T02:19:18.959Z,97688.39
2018-12-17T02:19:50.592Z,97692.33
2018-12-17T02:20:22.186Z,97698.80
2018-12-17T02:20:53.782Z,97692.82
2018-12-17T02:21:25.392Z,97694.60
2018-12-17T02:21:56.985Z,97694.28
2018-12-17T02:22:28.581Z,97691.85
2018-12-17T02:23:00.177Z,97699.59
2018-12-17T02:23:31.762Z,97692.44
2018-12-17T02:24:03.376Z,97685.70
2018-12-17T02:24:35.100Z,97683.67
2018-12-17T02:25:06.707Z,97690.58
2018-12-17T02:25:38.301Z,97690.22
2018-12-17T02:26:09.914Z,97687.34
2018-12-17T02:26:41.510Z,97686.92
2018-12-17T02:27:13.117Z,97686.09
2018-12-17T02:27:44.715Z,97684.89
2018-12-17T02:28:16.305Z,97689.58
2018-12-17T02:28:47.897Z,97682.41
2018-12-17T02:29:19.524Z,97693.13
2018-12-17T02:29:51.146Z,97685.91
2018-12-17T02:30:22.743Z,97686.41
2018-12-17T02:30:54.333Z,97690.27
2018-12-17T02:31:25.939Z,97679.67
2018-12-17T02:31:57.569Z,97671.91
2018-12-17T02:32:29.234Z,97684.86
2018-12-17T02:33:00.814Z,97687.44
2018-12-17T02:33:32.420Z,97688.80
2018-12-17T02:34:04.019Z,97684.98
2018-12-17T02:34:35.631Z,97679.08
2018-12-17T02:35:07.257Z,97680.38
2018-12-17T02:35:38.879Z,97693.43
2018-12-17T02:36:10.492Z,97680.47
2018-12-17T02:36:42.150Z,97686.48
2018-12-17T02:37:13.760Z,97686.09
2018-12-17T02:37:45.357Z,97684.87
2018-12-17T02:38:16.956Z,97681.13
2018-12-17T02:38:48.554Z,97677.28
2018-12-17T02:39:20.154Z,97683.27
2018-12-17T02:39:51.763Z,97683.72
2018-12-17T02:40:23.400Z,97683.80
2018-12-17T02:40:55.009Z,97683.84
2018-12-17T02:41:26.605Z,97681.28
2018-12-17T02:41:58.211Z,97684.28
2018-12-17T02:42:29.829Z,97684.30
2018-12-17T02:43:01.432Z,97680.89
2018-12-17T02:43:33.040Z,97685.25
2018-12-17T02:44:04.637Z,97687.77
2018-12-17T02:44:36.239Z,97691.19
2018-12-17T02:45:07.881Z,97692.48
2018-12-17T02:45:39.492Z,97687.42
2018-12-17T02:46:11.086Z,97689.59
2018-12-17T02:46:42.702Z,97697.66
2018-12-17T02:47:14.297Z,97699.80
2018-12-17T02:47:45.894Z,97698.95
2018-12-17T02:48:17.485Z,97694.69
2018-12-17T02:48:49.068Z,97697.66
2018-12-17T02:49:20.662Z,97695.88
2018-12-17T02:49:52.254Z,97697.14
2018-12-17T02:50:23.872Z,97694.53
2018-12-17T02:50:55.469Z,97697.48
2018-12-17T02:51:27.080Z,97697.86
2018-12-17T02:51:58.681Z,97704.24
2018-12-17T02:52:30.286Z,97708.08
2018-12-17T02:53:01.913Z,97699.98
2018-12-17T02:53:33.514Z,97704.24
2018-12-17T02:54:05.106Z,97696.52
2018-12-17T02:54:36.715Z,97699.53
2018-12-17T02:55:08.310Z,97704.50
2018-12-17T02:55:39.953Z,97707.90
2018-12-17T02:56:11.571Z,97685.64
2018-12-17T02:56:43.176Z,97705.28
2018-12-17T02:57:14.785Z,97704.83
2018-12-17T02:57:46.391Z,97708.24
2018-12-17T02:58:18.012Z,97707.38
2018-12-17T02:58:49.619Z,97710.36
2018-12-17T02:59:21.215Z,97709.89
2018-12-17T02:59:52.814Z,97709.46
2018-12-17T03:00:24.428Z,97707.33
2018-12-17T03:00:56.031Z,97706.39
2018-12-17T03:01:27.616Z,97707.58
2018-12-17T03:01:59.228Z,97713.05
2018-12-17T03:02:30.832Z,97709.62
2018-12-17T03:03:02.442Z,97705.36
2018-12-17T03:03:34.046Z,97713.36
2018-12-17T03:04:05.642Z,97710.27
2018-12-17T03:04:37.492Z,97712.25
2018-12-17T03:05:09.137Z,97715.52
2018-12-17T03:05:40.762Z,97714.13
2018-12-17T03:06:12.355Z,97710.53
2018-12-17T03:06:43.949Z,97712.14
2018-12-17T03:07:15.541Z,97712.83
2018-12-17T03:07:47.153Z,97711.53
2018-12-17T03:08:18.763Z,97705.56
2018-12-17T03:08:50.365Z,97709.64
2018-12-17T03:09:21.958Z,97712.96
2018-12-17T03:09:53.549Z,97708.55
2018-12-17T03:10:25.143Z,97719.54
2018-12-17T03:10:56.749Z,97711.44
2018-12-17T03:11:28.356Z,97711.79
2018-12-17T03:11:59.949Z,97701.02
2018-12-17T03:12:31.551Z,97705.61
2018-12-17T03:13:03.160Z,97699.55
2018-12-17T03:13:34.748Z,97703.30
2018-12-17T03:14:06.342Z,97705.33
2018-12-17T03:14:37.933Z,97702.69
2018-12-17T03:15:09.530Z,97706.00
2018-12-17T03:15:41.121Z,97707.66
2018-12-17T03:16:12.727Z,97712.76
2018-12-17T03:16:44.325Z,97705.52
2018-12-17T03:17:15.908Z,97712.30
2018-12-17T03:17:47.501Z,97710.20
2018-12-17T03:18:19.104Z,97711.41
2018-12-17T03:18:50.698Z,97717.29
2018-12-17T03:19:22.308Z,97710.88
2018-12-17T03:19:53.900Z,97712.50
2018-12-17T03:20:25.503Z,97712.89
2018-12-17T03:20:57.133Z,97715.88
2018-12-17T03:21:28.717Z,97711.52
2018-12-17T03:22:00.315Z,97711.08
2018-12-17T03:22:32.023Z,97716.20
2018-12-17T03:23:03.628Z,97708.10
2018-12-17T03:23:35.232Z,97705.58
2018-12-17T03:24:06.829Z,97707.66
2018-12-17T03:24:38.430Z,97710.64
2018-12-17T03:25:10.041Z,97706.75
2018-12-17T03:25:41.665Z,97711.02
2018-12-17T03:26:13.258Z,97705.88
2018-12-17T03:26:44.867Z,97710.16
2018-12-17T03:27:16.473Z,97711.44
2018-12-17T03:27:48.083Z,97709.23
2018-12-17T03:28:19.692Z,97710.07
2018-12-17T03:28:51.937Z,97710.49
2018-12-17T03:29:22.942Z,97717.84
2018-12-17T03:29:54.540Z,97713.58
2018-12-17T03:30:26.155Z,97715.80
2018-12-17T03:30:57.812Z,97713.33
2018-12-17T03:31:29.437Z,97717.27
2018-12-17T03:32:01.043Z,97710.53
2018-12-17T03:32:32.675Z,97718.30
2018-12-17T03:33:04.264Z,97711.91
2018-12-17T03:33:35.848Z,97713.28
2018-12-17T03:34:07.446Z,97717.61
2018-12-17T03:34:39.044Z,97712.08
2018-12-17T03:35:10.660Z,97712.08
2018-12-17T03:35:42.253Z,97715.94
2018-12-17T03:36:13.870Z,97709.63
2018-12-17T03:36:45.456Z,97714.75
2018-12-17T03:37:17.064Z,97712.69
2018-12-17T03:37:48.649Z,97719.46
2018-12-17T03:38:20.257Z,97714.83
2018-12-17T03:38:51.867Z,97718.19
2018-12-17T03:39:23.447Z,97716.14
2018-12-17T03:39:55.038Z,97723.89
2018-12-17T03:40:26.648Z,97727.31
2018-12-17T03:40:58.471Z,97722.11
2018-12-17T03:41:30.067Z,97722.53
2018-12-17T03:42:01.668Z,97720.18
2018-12-17T03:42:33.272Z,97726.09
2018-12-17T03:43:04.866Z,97726.27
2018-12-17T03:43:36.459Z,97715.69
2018-12-17T03:44:08.056Z,97730.15
2018-12-17T03:44:39.654Z,97728.53
2018-12-17T03:45:11.267Z,97726.95
2018-12-17T03:45:42.864Z,97732.52
2018-12-17T03:46:14.495Z,97731.16
2018-12-17T03:46:46.094Z,97735.58
2018-12-17T03:47:17.704Z,97731.87
2018-12-17T03:47:49.313Z,97729.36
2018-12-17T03:48:20.900Z,97733.62
2018-12-17T03:48:52.499Z,97743.94
2018-12-17T03:49:24.099Z,97739.98
2018-12-17T03:49:55.698Z,97738.48
2018-12-17T03:50:27.287Z,97741.88
2018-12-17T03:50:58.921Z,97736.92
2018-12-17T03:51:30.561Z,97729.31
2018-12-17T03:52:02.163Z,97733.27
2018-12-17T03:52:33.766Z,97731.72
2018-12-17T03:53:05.361Z,97733.26
2018-12-17T03:53:36.958Z,97738.70
2018-12-17T03:54:08.563Z,97736.98
2018-12-17T03:54:40.148Z,97702.56
2018-12-17T03:55:11.745Z,97732.14
2018-12-17T03:55:43.337Z,97737.03
2018-12-17T03:56:14.970Z,97731.42
2018-12-17T03:56:46.580Z,97737.42
2018-12-17T03:57:18.234Z,97699.20
2018-12-17T03:57:49.834Z,97729.73
2018-12-17T03:58:21.426Z,97738.81
2018-12-17T03:58:59.309Z,97744.41
2018-12-17T03:59:24.658Z,97743.22
2018-12-17T03:59:56.292Z,97739.30
2018-12-17T04:00:27.900Z,97741.27
2018-12-17T04:00:59.518Z,97733.00
2018-12-17T04:01:31.159Z,97738.37
2018-12-17T04:02:02.753Z,97736.97
2018-12-17T04:02:34.346Z,97739.39
2018-12-17T04:03:05.941Z,97732.48
2018-12-17T04:03:37.548Z,97732.81
2018-12-17T04:04:09.148Z,97736.14
2018-12-17T04:04:40.759Z,97716.28
2018-12-17T04:05:12.353Z,97729.48
2018-12-17T04:05:43.964Z,97733.22
2018-12-17T04:06:15.608Z,97729.22
2018-12-17T04:06:47.240Z,97733.00
2018-12-17T04:07:18.835Z,97696.91
2018-12-17T04:07:50.453Z,97733.38
2018-12-17T04:08:22.050Z,97735.92
2018-12-17T04:08:53.661Z,97732.06
2018-12-17T04:09:25.267Z,97739.24
2018-12-17T04:09:56.877Z,97741.31
2018-12-17T04:10:28.485Z,97742.58
2018-12-17T04:11:00.208Z,97744.25
2018-12-17T04:11:31.841Z,97745.48
2018-12-17T04:12:03.452Z,97744.56
2018-12-17T04:12:35.044Z,97748.84
2018-12-17T04:13:06.673Z,97750.10
2018-12-17T04:13:38.281Z,97745.73
2018-12-17T04:14:09.881Z,97749.09
2018-12-17T04:14:41.481Z,97750.72
2018-12-17T04:15:13.075Z,97752.82
2018-12-17T04:15:44.674Z,97756.26
2018-12-17T04:16:16.285Z,97760.50
2018-12-17T04:16:47.920Z,97757.08
2018-12-17T04:17:19.523Z,97764.27
2018-12-17T04:17:51.128Z,97756.46
2018-12-17T04:18:22.727Z,97759.37
2018-12-17T04:18:54.325Z,97759.78
2018-12-17T04:19:25.933Z,97757.66
2018-12-17T04:19:57.545Z,97761.54
2018-12-17T04:20:29.151Z,97759.40
2018-12-17T04:21:00.745Z,97759.87
2018-12-17T04:21:32.365Z,97760.75
2018-12-17T04:22:03.963Z,97765.80
2018-12-17T04:22:35.557Z,97764.98
2018-12-17T04:23:07.140Z,97762.78
2018-12-17T04:23:38.754Z,97763.64
2018-12-17T04:24:10.361Z,97765.33
2018-12-17T04:24:41.961Z,97765.27
2018-12-17T04:25:13.576Z,97765.28
2018-12-17T04:25:45.179Z,97761.48
2018-12-17T04:26:16.788Z,97763.20
2018-12-17T04:26:48.445Z,97767.42
2018-12-17T04:27:20.067Z,97716.70
2018-12-17T04:27:51.670Z,97758.45
2018-12-17T04:28:23.276Z,97761.48
2018-12-17T04:28:54.916Z,97761.44
2018-12-17T04:29:26.504Z,97751.68
2018-12-17T04:29:58.111Z,97756.28
2018-12-17T04:30:29.697Z,97760.92
2018-12-17T04:31:01.290Z,97759.60
2018-12-17T04:31:32.924Z,97761.32
2018-12-17T04:32:04.525Z,97763.11
2018-12-17T04:32:36.107Z,97766.00
2018-12-17T04:33:07.713Z,97766.46
2018-12-17T04:33:39.309Z,97766.45
2018-12-17T04:34:10.915Z,97768.14
2018-12-17T04:34:42.527Z,97765.60
2018-12-17T04:35:14.126Z,97763.06
2018-12-17T04:35:45.727Z,97764.81
2018-12-17T04:36:17.337Z,97769.09
2018-12-17T04:36:48.975Z,97731.08
2018-12-17T04:37:20.584Z,97768.34
2018-12-17T04:37:52.191Z,97768.78
2018-12-17T04:38:23.791Z,97767.59
2018-12-17T04:38:55.381Z,97769.35
2018-12-17T04:39:26.973Z,97771.07
2018-12-17T04:39:58.565Z,97772.89
2018-12-17T04:40:30.157Z,97778.45
2018-12-17T04:41:01.749Z,97770.83
2018-12-17T04:41:33.412Z,97771.25
2018-12-17T04:42:05.012Z,97769.22
2018-12-17T04:42:36.605Z,97770.94
2018-12-17T04:43:08.201Z,97774.36
2018-12-17T04:43:39.802Z,97769.29
2018-12-17T04:44:11.407Z,97770.62
2018-12-17T04:44:43.009Z,97773.70
2018-12-17T04:45:14.600Z,97772.46
2018-12-17T04:45:46.194Z,97764.94
2018-12-17T04:46:17.801Z,97773.08
2018-12-17T04:46:49.440Z,97771.11
2018-12-17T04:47:21.048Z,97774.52
2018-12-17T04:47:52.657Z,97770.75
2018-12-17T04:48:24.244Z,97770.84
2018-12-17T04:48:55.840Z,97773.92
2018-12-17T04:49:27.423Z,97774.83
2018-12-17T04:49:59.032Z,97777.86
2018-12-17T04:50:30.641Z,97768.55
2018-12-17T04:51:02.241Z,97777.57
2018-12-17T04:51:33.834Z,97777.18
2018-12-17T04:52:05.453Z,97780.23
2018-12-17T04:52:37.063Z,97778.60
2018-12-17T04:53:08.659Z,97781.66
2018-12-17T04:53:40.244Z,97782.97
2018-12-17T04:54:11.838Z,97780.47
2018-12-17T04:54:43.481Z,97784.32
2018-12-17T04:55:15.074Z,97784.40
2018-12-17T04:55:46.688Z,97780.66
2018-12-17T04:56:18.285Z,97782.42
2018-12-17T04:56:49.936Z,97780.74
2018-12-17T04:57:21.534Z,97785.92
2018-12-17T04:57:53.144Z,97785.96
2018-12-17T04:58:24.741Z,97791.15
2018-12-17T04:58:56.349Z,97818.95
2018-12-17T04:59:27.959Z,97788.25
2018-12-17T04:59:59.569Z,97787.45
2018-12-17T05:00:31.165Z,97793.45
2018-12-17T05:01:02.772Z,97790.95
2018-12-17T05:01:34.373Z,97777.30
2018-12-17T05:02:06.021Z,97792.33
2018-12-17T05:02:37.639Z,97791.98
2018-12-17T05:03:09.246Z,97795.45
2018-12-17T05:03:40.860Z,97788.28
2018-12-17T05:04:12.497Z,97787.45
2018-12-17T05:04:44.100Z,97796.02
2018-12-17T05:05:15.694Z,97795.21
2018-12-17T05:05:47.289Z,97788.45
2018-12-17T05:06:18.872Z,97788.52
2018-12-17T05:06:50.452Z,97789.78
2018-12-17T05:07:22.056Z,97786.44
2018-12-17T05:07:53.654Z,97792.84
2018-12-17T05:08:25.245Z,97786.05
2018-12-17T05:08:56.837Z,97792.44
2018-12-17T05:09:28.443Z,97790.78
2018-12-17T05:10:00.037Z,97788.25
2018-12-17T05:10:31.651Z,97787.89
2018-12-17T05:11:03.264Z,97787.48
2018-12-17T05:11:34.877Z,97793.88
2018-12-17T05:12:06.473Z,97795.21
2018-12-17T05:12:38.081Z,97791.88
2018-12-17T05:13:09.665Z,97792.30
2018-12-17T05:13:41.259Z,97789.76
2018-12-17T05:14:12.875Z,97789.34
2018-12-17T05:14:44.469Z,97786.48
2018-12-17T05:15:16.065Z,97788.12
2018-12-17T05:15:47.752Z,97786.84
2018-12-17T05:16:19.354Z,97795.38
2018-12-17T05:16:50.950Z,97792.40
2018-12-17T05:17:22.585Z,97795.42
2018-12-17T05:17:54.172Z,97794.16
2018-12-17T05:18:25.770Z,97793.31
2018-12-17T05:18:57.379Z,97795.50
2018-12-17T05:19:28.983Z,97798.08
2018-12-17T05:20:00.578Z,97801.91
2018-12-17T05:20:32.173Z,97798.93
2018-12-17T05:21:03.781Z,97798.51
2018-12-17T05:21:35.396Z,97802.34
2018-12-17T05:22:07.018Z,97801.04
2018-12-17T05:22:38.613Z,97799.72
2018-12-17T05:23:10.206Z,97803.12
2018-12-17T05:23:41.805Z,97803.12
2018-12-17T05:24:13.398Z,97807.30
2018-12-17T05:24:44.994Z,97807.30
2018-12-17T05:25:16.576Z,97808.15
2018-12-17T05:25:48.174Z,97806.87
2018-12-17T05:26:19.785Z,97810.20
2018-12-17T05:26:51.393Z,97810.98
2018-12-17T05:27:23.022Z,97809.64
2018-12-17T05:27:54.613Z,97811.73
2018-12-17T05:28:26.216Z,97802.78
2018-12-17T05:28:57.828Z,97817.12
2018-12-17T05:29:29.426Z,97811.94
2018-12-17T05:30:01.019Z,97817.42
2018-12-17T05:30:32.627Z,97813.88
2018-12-17T05:31:04.221Z,97812.14
2018-12-17T05:31:35.831Z,97816.69
2018-12-17T05:32:08.360Z,97817.45
2018-12-17T05:32:39.992Z,97812.69
2018-12-17T05:33:11.583Z,97814.27
2018-12-17T05:33:43.192Z,97818.44
2018-12-17T05:34:14.776Z,97817.89
2018-12-17T05:34:46.387Z,97813.97
2018-12-17T05:35:17.985Z,97817.75
2018-12-17T05:35:49.586Z,97820.20
2018-12-17T05:36:21.179Z,97819.70
2018-12-17T05:36:52.762Z,97817.50
2018-12-17T05:37:24.397Z,97820.84
2018-12-17T05:37:55.998Z,97828.00
2018-12-17T05:38:27.604Z,97821.17
2018-12-17T05:38:59.212Z,97823.25
2018-12-17T05:39:30.824Z,97828.25
2018-12-17T05:40:02.447Z,97824.36
2018-12-17T05:40:34.036Z,97828.17
2018-12-17T05:41:05.628Z,97828.58
2018-12-17T05:41:37.226Z,97822.48
2018-12-17T05:42:08.822Z,97820.73
2018-12-17T05:42:40.460Z,97820.30
2018-12-17T05:43:12.063Z,97824.05
2018-12-17T05:43:43.672Z,97826.63
2018-12-17T05:44:15.261Z,97826.62
2018-12-17T05:44:46.844Z,97816.24
2018-12-17T05:45:18.443Z,97830.81
2018-12-17T05:45:50.039Z,97829.47
2018-12-17T05:46:21.629Z,97830.73
2018-12-17T05:46:53.233Z,97829.03
2018-12-17T05:47:24.878Z,97832.78
2018-12-17T05:47:56.488Z,97833.22
2018-12-17T05:48:28.096Z,97837.06
2018-12-17T05:48:59.697Z,97837.05
2018-12-17T05:49:31.291Z,97830.65
2018-12-17T05:50:02.897Z,97837.47
2018-12-17T05:50:34.484Z,97834.05
2018-12-17T05:51:06.077Z,97836.97
2018-12-17T05:51:37.677Z,97839.08
2018-12-17T05:52:09.269Z,97834.83
2018-12-17T05:52:40.889Z,97830.11
2018-12-17T05:53:12.486Z,97833.12
2018-12-17T05:53:44.102Z,97833.98
2018-12-17T05:54:15.700Z,97834.81
2018-12-17T05:54:47.293Z,97838.23
2018-12-17T05:55:18.878Z,97835.27
2018-12-17T05:55:50.492Z,97840.38
2018-12-17T05:56:22.104Z,97831.84
2018-12-17T05:56:53.702Z,97837.83
2018-12-17T05:57:25.293Z,97841.30
2018-12-17T05:57:56.927Z,97841.25
2018-12-17T05:58:28.524Z,97835.27
2018-12-17T05:59:00.117Z,97834.84
2018-12-17T05:59:31.710Z,97837.37
2018-12-17T06:00:03.305Z,97844.23
2018-12-17T06:00:34.897Z,97841.30
2018-12-17T06:01:06.507Z,97848.50
2018-12-17T06:01:38.105Z,97844.23
2018-12-17T06:02:09.702Z,97848.06
2018-12-17T06:02:41.297Z,97848.49
2018-12-17T06:03:12.914Z,97848.50
2018-12-17T06:03:44.511Z,97851.55
2018-12-17T06:04:16.128Z,97854.13
2018-12-17T06:04:47.725Z,97854.63
2018-12-17T06:05:19.318Z,97860.63
2018-12-17T06:05:50.910Z,97855.57
2018-12-17T06:06:22.509Z,97857.72
2018-12-17T06:06:54.102Z,97858.63
2018-12-17T06:07:25.693Z,97862.08
2018-12-17T06:07:57.327Z,97861.70
2018-12-17T06:08:28.964Z,97863.01
2018-12-17T06:09:00.558Z,97867.75
2018-12-17T06:09:32.166Z,97860.95
2018-12-17T06:10:03.761Z,97867.84
2018-12-17T06:10:35.411Z,97863.14
2018-12-17T06:11:07.006Z,97866.16
2018-12-17T06:11:38.608Z,97868.34